sensor_id;sensor_type;location;lat;lon;timestamp;P1;durP1;ratioP1;P2;durP2;ratioP2
47251;SDS011;32991;51.374;11.586;2023-02-28T00:01:10;6.70;;;3.70;;
47251;SDS011;32991;51.374;11.586;2023-02-28T00:03:38;5.13;;;3.65;;
47251;SDS011;32991;51.374;11.586;2023-02-28T00:06:05;5.20;;;3.80;;
47251;SDS011;32991;51.374;11.586;2023-02-28T00:08:32;5.13;;;3.70;;
47251;SDS011;32991;51.374;11.586;2023-02-28T00:11:03;5.68;;;4.00;;
47251;SDS011;32991;51.374;11.586;2023-02-28T00:13:32;6.40;;;4.45;;
47251;SDS011;32991;51.374;11.586;2023-02-28T00:16:02;6.22;;;3.72;;
47251;SDS011;32991;51.374;11.586;2023-02-28T00:18:33;4.57;;;3.10;;
47251;SDS011;32991;51.374;11.586;2023-02-28T00:21:00;3.80;;;3.00;;
47251;SDS011;32991;51.374;11.586;2023-02-28T00:23:29;4.60;;;3.10;;
47251;SDS011;32991;51.374;11.586;2023-02-28T00:25:56;4.15;;;2.70;;
47251;SDS011;32991;51.374;11.586;2023-02-28T00:28:23;4.93;;;3.10;;
47251;SDS011;32991;51.374;11.586;2023-02-28T00:30:50;3.65;;;2.50;;
47251;SDS011;32991;51.374;11.586;2023-02-28T00:33:20;4.22;;;3.10;;
47251;SDS011;32991;51.374;11.586;2023-02-28T00:35:50;4.32;;;2.65;;
47251;SDS011;32991;51.374;11.586;2023-02-28T00:38:20;6.43;;;3.40;;
47251;SDS011;32991;51.374;11.586;2023-02-28T00:40:47;5.25;;;3.47;;
47251;SDS011;32991;51.374;11.586;2023-02-28T00:43:13;3.65;;;2.70;;
47251;SDS011;32991;51.374;11.586;2023-02-28T00:45:39;4.32;;;2.75;;
47251;SDS011;32991;51.374;11.586;2023-02-28T00:48:07;4.28;;;3.03;;
47251;SDS011;32991;51.374;11.586;2023-02-28T00:50:34;6.25;;;3.03;;
47251;SDS011;32991;51.374;11.586;2023-02-28T00:53:03;6.07;;;3.25;;
47251;SDS011;32991;51.374;11.586;2023-02-28T00:55:30;4.97;;;3.10;;
47251;SDS011;32991;51.374;11.586;2023-02-28T00:57:57;4.88;;;3.28;;
47251;SDS011;32991;51.374;11.586;2023-02-28T01:00:24;5.57;;;2.95;;
47251;SDS011;32991;51.374;11.586;2023-02-28T01:02:50;4.88;;;3.08;;
47251;SDS011;32991;51.374;11.586;2023-02-28T01:05:17;3.50;;;3.10;;
47251;SDS011;32991;51.374;11.586;2023-02-28T01:07:44;5.82;;;3.25;;
47251;SDS011;32991;51.374;11.586;2023-02-28T01:10:10;5.25;;;3.22;;
47251;SDS011;32991;51.374;11.586;2023-02-28T01:12:37;5.60;;;3.00;;
47251;SDS011;32991;51.374;11.586;2023-02-28T01:15:03;6.20;;;2.97;;
47251;SDS011;32991;51.374;11.586;2023-02-28T01:17:31;6.82;;;3.55;;
47251;SDS011;32991;51.374;11.586;2023-02-28T01:20:03;3.80;;;3.03;;
47251;SDS011;32991;51.374;11.586;2023-02-28T01:22:32;5.13;;;2.88;;
47251;SDS011;32991;51.374;11.586;2023-02-28T01:25:05;4.05;;;3.05;;
47251;SDS011;32991;51.374;11.586;2023-02-28T01:27:33;5.50;;;2.92;;
47251;SDS011;32991;51.374;11.586;2023-02-28T01:29:59;4.43;;;3.25;;
47251;SDS011;32991;51.374;11.586;2023-02-28T01:32:26;5.10;;;3.13;;
47251;SDS011;32991;51.374;11.586;2023-02-28T01:34:52;5.60;;;3.13;;
47251;SDS011;32991;51.374;11.586;2023-02-28T01:37:19;5.45;;;3.67;;
47251;SDS011;32991;51.374;11.586;2023-02-28T01:39:45;6.20;;;3.20;;
47251;SDS011;32991;51.374;11.586;2023-02-28T01:42:12;4.70;;;3.25;;
47251;SDS011;32991;51.374;11.586;2023-02-28T01:47:32;5.47;;;3.33;;
47251;SDS011;32991;51.374;11.586;2023-02-28T01:50:06;5.25;;;3.88;;
47251;SDS011;32991;51.374;11.586;2023-02-28T01:52:36;5.53;;;3.35;;
47251;SDS011;32991;51.374;11.586;2023-02-28T01:55:03;6.15;;;3.20;;
47251;SDS011;32991;51.374;11.586;2023-02-28T01:57:34;5.25;;;2.92;;
47251;SDS011;32991;51.374;11.586;2023-02-28T02:00:06;4.40;;;2.33;;
47251;SDS011;32991;51.374;11.586;2023-02-28T02:02:38;5.13;;;3.30;;
47251;SDS011;32991;51.374;11.586;2023-02-28T02:05:06;2.80;;;2.38;;
47251;SDS011;32991;51.374;11.586;2023-02-28T02:07:36;4.43;;;2.75;;
47251;SDS011;32991;51.374;11.586;2023-02-28T02:12:55;4.95;;;2.80;;
47251;SDS011;32991;51.374;11.586;2023-02-28T02:16:00;4.00;;;2.55;;
47251;SDS011;32991;51.374;11.586;2023-02-28T02:18:50;6.43;;;2.70;;
47251;SDS011;32991;51.374;11.586;2023-02-28T02:24:45;3.38;;;2.35;;
47251;SDS011;32991;51.374;11.586;2023-02-28T02:27:37;4.35;;;2.70;;
47251;SDS011;32991;51.374;11.586;2023-02-28T02:36:18;4.47;;;2.55;;
47251;SDS011;32991;51.374;11.586;2023-02-28T02:38:52;4.05;;;2.80;;
47251;SDS011;32991;51.374;11.586;2023-02-28T02:44:15;4.32;;;2.95;;
47251;SDS011;32991;51.374;11.586;2023-02-28T02:46:54;3.97;;;2.70;;
47251;SDS011;32991;51.374;11.586;2023-02-28T02:49:29;4.57;;;3.15;;
47251;SDS011;32991;51.374;11.586;2023-02-28T02:52:07;4.88;;;2.83;;
47251;SDS011;32991;51.374;11.586;2023-02-28T02:54:37;4.05;;;2.83;;
47251;SDS011;32991;51.374;11.586;2023-02-28T02:57:08;9.18;;;4.05;;
47251;SDS011;32991;51.374;11.586;2023-02-28T02:59:39;7.38;;;3.40;;
47251;SDS011;32991;51.374;11.586;2023-02-28T03:02:13;3.90;;;2.75;;
47251;SDS011;32991;51.374;11.586;2023-02-28T03:04:43;4.25;;;3.13;;
47251;SDS011;32991;51.374;11.586;2023-02-28T03:07:12;5.28;;;3.13;;
47251;SDS011;32991;51.374;11.586;2023-02-28T03:09:39;8.30;;;3.60;;
47251;SDS011;32991;51.374;11.586;2023-02-28T03:12:08;4.80;;;3.15;;
47251;SDS011;32991;51.374;11.586;2023-02-28T03:14:40;5.50;;;3.45;;
47251;SDS011;32991;51.374;11.586;2023-02-28T03:20:27;5.32;;;3.15;;
47251;SDS011;32991;51.374;11.586;2023-02-28T03:23:21;4.18;;;3.03;;
47251;SDS011;32991;51.374;11.586;2023-02-28T03:29:07;5.93;;;3.30;;
47251;SDS011;32991;51.374;11.586;2023-02-28T03:31:37;4.82;;;3.17;;
47251;SDS011;32991;51.374;11.586;2023-02-28T03:34:14;4.90;;;3.10;;
47251;SDS011;32991;51.374;11.586;2023-02-28T03:36:49;4.78;;;3.00;;
47251;SDS011;32991;51.374;11.586;2023-02-28T03:39:24;4.85;;;3.28;;
47251;SDS011;32991;51.374;11.586;2023-02-28T03:44:41;4.43;;;3.00;;
47251;SDS011;32991;51.374;11.586;2023-02-28T03:47:17;4.80;;;3.28;;
47251;SDS011;32991;51.374;11.586;2023-02-28T03:49:51;4.68;;;3.10;;
47251;SDS011;32991;51.374;11.586;2023-02-28T03:52:25;4.50;;;2.95;;
47251;SDS011;32991;51.374;11.586;2023-02-28T03:54:57;5.85;;;3.42;;
47251;SDS011;32991;51.374;11.586;2023-02-28T04:00:19;5.25;;;3.53;;
47251;SDS011;32991;51.374;11.586;2023-02-28T04:02:48;7.50;;;3.50;;
47251;SDS011;32991;51.374;11.586;2023-02-28T04:05:20;6.65;;;3.63;;
47251;SDS011;32991;51.374;11.586;2023-02-28T04:07:48;5.97;;;3.80;;
47251;SDS011;32991;51.374;11.586;2023-02-28T04:10:15;8.05;;;4.28;;
47251;SDS011;32991;51.374;11.586;2023-02-28T04:12:42;5.63;;;4.00;;
47251;SDS011;32991;51.374;11.586;2023-02-28T04:15:09;6.20;;;3.75;;
47251;SDS011;32991;51.374;11.586;2023-02-28T04:17:36;6.13;;;3.20;;
47251;SDS011;32991;51.374;11.586;2023-02-28T04:20:03;5.38;;;3.58;;
47251;SDS011;32991;51.374;11.586;2023-02-28T04:22:38;5.40;;;3.40;;
47251;SDS011;32991;51.374;11.586;2023-02-28T04:25:05;6.80;;;3.83;;
47251;SDS011;32991;51.374;11.586;2023-02-28T04:27:35;5.70;;;3.60;;
47251;SDS011;32991;51.374;11.586;2023-02-28T04:30:02;4.78;;;3.67;;
47251;SDS011;32991;51.374;11.586;2023-02-28T04:32:29;7.00;;;3.97;;
47251;SDS011;32991;51.374;11.586;2023-02-28T04:34:56;5.93;;;3.85;;
47251;SDS011;32991;51.374;11.586;2023-02-28T04:37:22;5.90;;;3.85;;
47251;SDS011;32991;51.374;11.586;2023-02-28T04:39:54;7.67;;;4.07;;
47251;SDS011;32991;51.374;11.586;2023-02-28T04:42:22;6.78;;;4.22;;
47251;SDS011;32991;51.374;11.586;2023-02-28T04:44:48;5.33;;;4.23;;
47251;SDS011;32991;51.374;11.586;2023-02-28T04:47:15;5.67;;;4.10;;
47251;SDS011;32991;51.374;11.586;2023-02-28T04:49:42;5.53;;;4.33;;
47251;SDS011;32991;51.374;11.586;2023-02-28T04:52:09;5.23;;;3.80;;
47251;SDS011;32991;51.374;11.586;2023-02-28T04:54:36;7.03;;;4.00;;
47251;SDS011;32991;51.374;11.586;2023-02-28T04:57:04;6.50;;;3.70;;
47251;SDS011;32991;51.374;11.586;2023-02-28T04:59:34;7.93;;;4.27;;
47251;SDS011;32991;51.374;11.586;2023-02-28T05:02:01;5.97;;;4.50;;
47251;SDS011;32991;51.374;11.586;2023-02-28T05:04:33;7.07;;;4.90;;
47251;SDS011;32991;51.374;11.586;2023-02-28T05:07:01;6.37;;;4.40;;
47251;SDS011;32991;51.374;11.586;2023-02-28T05:09:28;6.40;;;4.53;;
47251;SDS011;32991;51.374;11.586;2023-02-28T05:11:55;7.73;;;4.60;;
47251;SDS011;32991;51.374;11.586;2023-02-28T05:14:24;6.87;;;4.30;;
47251;SDS011;32991;51.374;11.586;2023-02-28T05:16:51;5.83;;;3.93;;
47251;SDS011;32991;51.374;11.586;2023-02-28T05:19:18;5.93;;;4.67;;
47251;SDS011;32991;51.374;11.586;2023-02-28T05:21:49;6.03;;;4.10;;
47251;SDS011;32991;51.374;11.586;2023-02-28T05:24:16;7.77;;;4.07;;
47251;SDS011;32991;51.374;11.586;2023-02-28T05:26:49;6.77;;;3.97;;
47251;SDS011;32991;51.374;11.586;2023-02-28T05:29:17;5.37;;;4.00;;
47251;SDS011;32991;51.374;11.586;2023-02-28T05:31:44;6.37;;;4.50;;
47251;SDS011;32991;51.374;11.586;2023-02-28T05:34:11;11.67;;;4.53;;
47251;SDS011;32991;51.374;11.586;2023-02-28T05:36:38;5.33;;;4.13;;
47251;SDS011;32991;51.374;11.586;2023-02-28T05:39:06;6.67;;;4.37;;
47251;SDS011;32991;51.374;11.586;2023-02-28T05:41:36;9.20;;;4.20;;
47251;SDS011;32991;51.374;11.586;2023-02-28T05:44:03;8.27;;;5.10;;
47251;SDS011;32991;51.374;11.586;2023-02-28T05:46:29;9.77;;;5.37;;
47251;SDS011;32991;51.374;11.586;2023-02-28T05:48:56;10.10;;;5.80;;
47251;SDS011;32991;51.374;11.586;2023-02-28T05:51:24;12.10;;;6.23;;
47251;SDS011;32991;51.374;11.586;2023-02-28T05:53:50;10.17;;;5.97;;
47251;SDS011;32991;51.374;11.586;2023-02-28T05:56:20;10.10;;;6.43;;
47251;SDS011;32991;51.374;11.586;2023-02-28T05:58:47;9.97;;;5.57;;
47251;SDS011;32991;51.374;11.586;2023-02-28T06:01:20;8.47;;;5.57;;
47251;SDS011;32991;51.374;11.586;2023-02-28T06:03:49;13.23;;;5.93;;
47251;SDS011;32991;51.374;11.586;2023-02-28T06:06:17;9.23;;;5.80;;
47251;SDS011;32991;51.374;11.586;2023-02-28T06:08:44;9.33;;;5.80;;
47251;SDS011;32991;51.374;11.586;2023-02-28T06:11:11;12.50;;;6.73;;
47251;SDS011;32991;51.374;11.586;2023-02-28T06:13:38;9.77;;;6.23;;
47251;SDS011;32991;51.374;11.586;2023-02-28T06:16:05;9.73;;;5.90;;
47251;SDS011;32991;51.374;11.586;2023-02-28T06:18:31;12.47;;;6.93;;
47251;SDS011;32991;51.374;11.586;2023-02-28T06:20:58;11.47;;;6.10;;
47251;SDS011;32991;51.374;11.586;2023-02-28T06:23:24;9.50;;;5.60;;
47251;SDS011;32991;51.374;11.586;2023-02-28T06:25:51;9.47;;;5.80;;
47251;SDS011;32991;51.374;11.586;2023-02-28T06:28:19;10.20;;;6.00;;
47251;SDS011;32991;51.374;11.586;2023-02-28T06:30:45;12.60;;;6.50;;
47251;SDS011;32991;51.374;11.586;2023-02-28T06:33:12;13.07;;;5.80;;
47251;SDS011;32991;51.374;11.586;2023-02-28T06:35:38;11.43;;;7.27;;
47251;SDS011;32991;51.374;11.586;2023-02-28T06:38:05;19.67;;;9.70;;
47251;SDS011;32991;51.374;11.586;2023-02-28T06:40:32;14.27;;;8.00;;
47251;SDS011;32991;51.374;11.586;2023-02-28T06:43:01;9.83;;;6.57;;
47251;SDS011;32991;51.374;11.586;2023-02-28T06:45:28;8.67;;;5.93;;
47251;SDS011;32991;51.374;11.586;2023-02-28T06:47:54;6.90;;;5.38;;
47251;SDS011;32991;51.374;11.586;2023-02-28T06:50:21;8.77;;;5.90;;
47251;SDS011;32991;51.374;11.586;2023-02-28T06:52:47;9.63;;;5.57;;
47251;SDS011;32991;51.374;11.586;2023-02-28T06:55:14;12.93;;;5.38;;
47251;SDS011;32991;51.374;11.586;2023-02-28T06:57:41;12.18;;;5.60;;
47251;SDS011;32991;51.374;11.586;2023-02-28T07:00:08;12.18;;;6.00;;
47251;SDS011;32991;51.374;11.586;2023-02-28T07:02:36;14.55;;;5.85;;
47251;SDS011;32991;51.374;11.586;2023-02-28T07:05:04;11.43;;;5.80;;
47251;SDS011;32991;51.374;11.586;2023-02-28T07:07:31;9.45;;;5.30;;
47251;SDS011;32991;51.374;11.586;2023-02-28T07:09:58;8.05;;;4.80;;
47251;SDS011;32991;51.374;11.586;2023-02-28T07:12:25;5.78;;;4.88;;
47251;SDS011;32991;51.374;11.586;2023-02-28T07:14:51;8.88;;;4.82;;
47251;SDS011;32991;51.374;11.586;2023-02-28T07:17:21;9.15;;;4.65;;
47251;SDS011;32991;51.374;11.586;2023-02-28T07:19:48;7.13;;;4.55;;
47251;SDS011;32991;51.374;11.586;2023-02-28T07:22:15;8.73;;;5.45;;
47251;SDS011;32991;51.374;11.586;2023-02-28T07:24:41;7.10;;;4.90;;
47251;SDS011;32991;51.374;11.586;2023-02-28T07:27:10;6.55;;;4.95;;
47251;SDS011;32991;51.374;11.586;2023-02-28T07:29:37;7.55;;;4.30;;
47251;SDS011;32991;51.374;11.586;2023-02-28T07:32:04;9.88;;;5.28;;
47251;SDS011;32991;51.374;11.586;2023-02-28T07:34:34;9.75;;;5.78;;
47251;SDS011;32991;51.374;11.586;2023-02-28T07:37:00;8.18;;;5.20;;
47251;SDS011;32991;51.374;11.586;2023-02-28T07:39:29;6.40;;;4.88;;
47251;SDS011;32991;51.374;11.586;2023-02-28T07:41:56;8.05;;;5.60;;
47251;SDS011;32991;51.374;11.586;2023-02-28T07:44:25;7.72;;;4.60;;
47251;SDS011;32991;51.374;11.586;2023-02-28T07:46:52;6.32;;;4.63;;
47251;SDS011;32991;51.374;11.586;2023-02-28T07:49:19;6.53;;;4.82;;
47251;SDS011;32991;51.374;11.586;2023-02-28T07:51:45;9.32;;;5.10;;
47251;SDS011;32991;51.374;11.586;2023-02-28T07:54:14;6.90;;;4.80;;
47251;SDS011;32991;51.374;11.586;2023-02-28T07:56:41;7.20;;;4.60;;
47251;SDS011;32991;51.374;11.586;2023-02-28T07:59:08;5.57;;;4.50;;
47251;SDS011;32991;51.374;11.586;2023-02-28T08:01:37;7.28;;;4.07;;
47251;SDS011;32991;51.374;11.586;2023-02-28T08:04:04;7.03;;;4.05;;
47251;SDS011;32991;51.374;11.586;2023-02-28T08:06:30;5.68;;;3.97;;
47251;SDS011;32991;51.374;11.586;2023-02-28T08:09:01;6.13;;;3.75;;
47251;SDS011;32991;51.374;11.586;2023-02-28T08:11:28;4.32;;;3.05;;
47251;SDS011;32991;51.374;11.586;2023-02-28T08:13:55;5.38;;;3.67;;
47251;SDS011;32991;51.374;11.586;2023-02-28T08:16:21;5.78;;;3.92;;
47251;SDS011;32991;51.374;11.586;2023-02-28T08:18:49;7.47;;;4.05;;
47251;SDS011;32991;51.374;11.586;2023-02-28T08:21:16;5.43;;;3.83;;
47251;SDS011;32991;51.374;11.586;2023-02-28T08:23:43;9.65;;;4.10;;
47251;SDS011;32991;51.374;11.586;2023-02-28T08:26:10;7.43;;;4.22;;
47251;SDS011;32991;51.374;11.586;2023-02-28T08:28:39;5.35;;;3.75;;
47251;SDS011;32991;51.374;11.586;2023-02-28T08:31:09;6.07;;;4.28;;
47251;SDS011;32991;51.374;11.586;2023-02-28T08:33:37;5.43;;;3.83;;
47251;SDS011;32991;51.374;11.586;2023-02-28T08:36:07;6.68;;;3.90;;
47251;SDS011;32991;51.374;11.586;2023-02-28T08:38:35;7.90;;;3.95;;
47251;SDS011;32991;51.374;11.586;2023-02-28T08:41:03;5.60;;;4.22;;
47251;SDS011;32991;51.374;11.586;2023-02-28T08:43:33;7.22;;;4.25;;
47251;SDS011;32991;51.374;11.586;2023-02-28T08:46:00;6.55;;;3.78;;
47251;SDS011;32991;51.374;11.586;2023-02-28T08:48:27;7.05;;;4.35;;
47251;SDS011;32991;51.374;11.586;2023-02-28T08:51:04;9.73;;;4.43;;
47251;SDS011;32991;51.374;11.586;2023-02-28T08:53:34;5.45;;;4.80;;
47251;SDS011;32991;51.374;11.586;2023-02-28T08:56:02;6.43;;;4.15;;
47251;SDS011;32991;51.374;11.586;2023-02-28T08:58:30;5.57;;;4.28;;
47251;SDS011;32991;51.374;11.586;2023-02-28T09:00:57;6.15;;;4.18;;
47251;SDS011;32991;51.374;11.586;2023-02-28T09:03:23;10.18;;;4.07;;
47251;SDS011;32991;51.374;11.586;2023-02-28T09:05:54;5.80;;;3.63;;
47251;SDS011;32991;51.374;11.586;2023-02-28T09:08:21;11.95;;;4.35;;
47251;SDS011;32991;51.374;11.586;2023-02-28T09:10:52;7.32;;;3.65;;
47251;SDS011;32991;51.374;11.586;2023-02-28T09:13:26;4.50;;;3.85;;
47251;SDS011;32991;51.374;11.586;2023-02-28T09:15:53;5.72;;;3.53;;
47251;SDS011;32991;51.374;11.586;2023-02-28T09:18:24;6.57;;;3.38;;
47251;SDS011;32991;51.374;11.586;2023-02-28T09:20:54;4.43;;;3.72;;
47251;SDS011;32991;51.374;11.586;2023-02-28T09:23:21;7.00;;;3.55;;
47251;SDS011;32991;51.374;11.586;2023-02-28T09:25:48;5.57;;;3.60;;
47251;SDS011;32991;51.374;11.586;2023-02-28T09:28:16;6.75;;;3.63;;
47251;SDS011;32991;51.374;11.586;2023-02-28T09:30:47;4.28;;;3.38;;
47251;SDS011;32991;51.374;11.586;2023-02-28T09:33:17;4.72;;;3.42;;
47251;SDS011;32991;51.374;11.586;2023-02-28T09:35:47;4.25;;;3.67;;
47251;SDS011;32991;51.374;11.586;2023-02-28T09:38:14;5.70;;;4.00;;
47251;SDS011;32991;51.374;11.586;2023-02-28T09:40:49;4.60;;;3.20;;
47251;SDS011;32991;51.374;11.586;2023-02-28T09:43:18;3.97;;;3.10;;
47251;SDS011;32991;51.374;11.586;2023-02-28T09:45:55;6.43;;;3.75;;
47251;SDS011;32991;51.374;11.586;2023-02-28T09:48:33;5.75;;;3.25;;
47251;SDS011;32991;51.374;11.586;2023-02-28T09:51:09;4.18;;;3.30;;
47251;SDS011;32991;51.374;11.586;2023-02-28T09:53:58;5.65;;;3.33;;
47251;SDS011;32991;51.374;11.586;2023-02-28T09:56:29;5.57;;;3.22;;
47251;SDS011;32991;51.374;11.586;2023-02-28T10:01:45;5.47;;;3.80;;
47251;SDS011;32991;51.374;11.586;2023-02-28T10:04:28;4.13;;;3.70;;
47251;SDS011;32991;51.374;11.586;2023-02-28T10:07:05;6.00;;;3.83;;
47251;SDS011;32991;51.374;11.586;2023-02-28T10:09:46;4.28;;;3.75;;
47251;SDS011;32991;51.374;11.586;2023-02-28T10:12:17;12.45;;;3.88;;
47251;SDS011;32991;51.374;11.586;2023-02-28T10:14:46;5.72;;;3.88;;
47251;SDS011;32991;51.374;11.586;2023-02-28T10:17:15;7.03;;;3.85;;
47251;SDS011;32991;51.374;11.586;2023-02-28T10:22:29;6.25;;;3.90;;
47251;SDS011;32991;51.374;11.586;2023-02-28T10:25:22;11.48;;;4.13;;
47251;SDS011;32991;51.374;11.586;2023-02-28T10:28:07;4.65;;;3.90;;
47251;SDS011;32991;51.374;11.586;2023-02-28T10:30:36;6.22;;;4.50;;
47251;SDS011;32991;51.374;11.586;2023-02-28T10:33:15;6.10;;;4.32;;
47251;SDS011;32991;51.374;11.586;2023-02-28T10:36:04;5.75;;;4.15;;
47251;SDS011;32991;51.374;11.586;2023-02-28T10:38:34;5.25;;;3.90;;
47251;SDS011;32991;51.374;11.586;2023-02-28T10:41:05;5.45;;;3.95;;
47251;SDS011;32991;51.374;11.586;2023-02-28T10:43:32;4.93;;;3.60;;
47251;SDS011;32991;51.374;11.586;2023-02-28T10:48:37;5.65;;;3.55;;
47251;SDS011;32991;51.374;11.586;2023-02-28T10:51:07;5.93;;;3.50;;
47251;SDS011;32991;51.374;11.586;2023-02-28T10:53:37;3.92;;;2.92;;
47251;SDS011;32991;51.374;11.586;2023-02-28T10:56:25;5.05;;;3.20;;
47251;SDS011;32991;51.374;11.586;2023-02-28T10:58:56;4.63;;;3.65;;
47251;SDS011;32991;51.374;11.586;2023-02-28T11:07:18;8.48;;;4.07;;
47251;SDS011;32991;51.374;11.586;2023-02-28T11:09:50;6.68;;;3.67;;
47251;SDS011;32991;51.374;11.586;2023-02-28T11:15:04;4.95;;;3.88;;
47251;SDS011;32991;51.374;11.586;2023-02-28T11:17:41;4.93;;;4.00;;
47251;SDS011;32991;51.374;11.586;2023-02-28T11:20:17;6.13;;;4.25;;
47251;SDS011;32991;51.374;11.586;2023-02-28T11:22:47;6.88;;;4.35;;
47251;SDS011;32991;51.374;11.586;2023-02-28T11:25:30;5.45;;;4.25;;
47251;SDS011;32991;51.374;11.586;2023-02-28T11:28:03;6.28;;;4.47;;
47251;SDS011;32991;51.374;11.586;2023-02-28T11:30:34;5.95;;;4.40;;
47251;SDS011;32991;51.374;11.586;2023-02-28T11:33:13;5.35;;;4.10;;
47251;SDS011;32991;51.374;11.586;2023-02-28T11:35:45;4.93;;;4.30;;
47251;SDS011;32991;51.374;11.586;2023-02-28T11:38:14;7.63;;;4.40;;
47251;SDS011;32991;51.374;11.586;2023-02-28T11:40:43;6.35;;;4.97;;
47251;SDS011;32991;51.374;11.586;2023-02-28T11:48:41;7.63;;;5.00;;
47251;SDS011;32991;51.374;11.586;2023-02-28T11:56:47;5.72;;;4.70;;
47251;SDS011;32991;51.374;11.586;2023-02-28T11:59:28;8.65;;;4.68;;
47251;SDS011;32991;51.374;11.586;2023-02-28T12:02:08;5.93;;;4.68;;
47251;SDS011;32991;51.374;11.586;2023-02-28T12:05:04;5.80;;;4.35;;
47251;SDS011;32991;51.374;11.586;2023-02-28T12:16:17;6.72;;;4.68;;
47251;SDS011;32991;51.374;11.586;2023-02-28T12:19:03;6.95;;;4.63;;
47251;SDS011;32991;51.374;11.586;2023-02-28T12:21:40;6.80;;;4.88;;
47251;SDS011;32991;51.374;11.586;2023-02-28T12:24:52;8.43;;;5.10;;
47251;SDS011;32991;51.374;11.586;2023-02-28T12:27:11;6.85;;;4.63;;
47251;SDS011;32991;51.374;11.586;2023-02-28T12:29:43;6.68;;;5.30;;
47251;SDS011;32991;51.374;11.586;2023-02-28T12:32:36;8.93;;;5.30;;
47251;SDS011;32991;51.374;11.586;2023-02-28T12:40:25;8.15;;;5.07;;
47251;SDS011;32991;51.374;11.586;2023-02-28T12:43:03;5.75;;;4.60;;
47251;SDS011;32991;51.374;11.586;2023-02-28T12:45:49;8.13;;;5.10;;
47251;SDS011;32991;51.374;11.586;2023-02-28T12:48:21;6.07;;;4.70;;
47251;SDS011;32991;51.374;11.586;2023-02-28T12:50:52;6.47;;;5.65;;
47251;SDS011;32991;51.374;11.586;2023-02-28T12:53:26;7.93;;;5.57;;
47251;SDS011;32991;51.374;11.586;2023-02-28T12:58:36;6.20;;;4.60;;
47251;SDS011;32991;51.374;11.586;2023-02-28T13:07:10;8.85;;;5.85;;
47251;SDS011;32991;51.374;11.586;2023-02-28T13:09:59;7.88;;;5.63;;
47251;SDS011;32991;51.374;11.586;2023-02-28T13:12:27;6.47;;;4.80;;
47251;SDS011;32991;51.374;11.586;2023-02-28T13:15:02;7.82;;;5.20;;
47251;SDS011;32991;51.374;11.586;2023-02-28T13:17:38;7.30;;;5.25;;
47251;SDS011;32991;51.374;11.586;2023-02-28T13:20:14;9.75;;;5.57;;
47251;SDS011;32991;51.374;11.586;2023-02-28T13:22:46;5.90;;;4.93;;
47251;SDS011;32991;51.374;11.586;2023-02-28T13:27:48;7.28;;;5.47;;
47251;SDS011;32991;51.374;11.586;2023-02-28T13:38:41;7.22;;;5.32;;
47251;SDS011;32991;51.374;11.586;2023-02-28T13:46:34;7.47;;;5.22;;
47251;SDS011;32991;51.374;11.586;2023-02-28T13:52:12;6.32;;;5.53;;
47251;SDS011;32991;51.374;11.586;2023-02-28T13:54:52;9.05;;;5.53;;
47251;SDS011;32991;51.374;11.586;2023-02-28T13:57:31;13.63;;;5.50;;
47251;SDS011;32991;51.374;11.586;2023-02-28T14:03:11;9.25;;;5.35;;
47251;SDS011;32991;51.374;11.586;2023-02-28T14:05:39;6.53;;;5.18;;
47251;SDS011;32991;51.374;11.586;2023-02-28T14:08:06;7.53;;;5.40;;
47251;SDS011;32991;51.374;11.586;2023-02-28T14:10:50;6.65;;;5.65;;
47251;SDS011;32991;51.374;11.586;2023-02-28T14:15:46;6.38;;;5.13;;
47251;SDS011;32991;51.374;11.586;2023-02-28T14:18:31;8.80;;;4.93;;
47251;SDS011;32991;51.374;11.586;2023-02-28T14:21:02;11.63;;;5.63;;
47251;SDS011;32991;51.374;11.586;2023-02-28T14:23:48;6.53;;;5.35;;
47251;SDS011;32991;51.374;11.586;2023-02-28T14:29:42;6.00;;;5.15;;
47251;SDS011;32991;51.374;11.586;2023-02-28T14:37:50;22.35;;;20.27;;
47251;SDS011;32991;51.374;11.586;2023-02-28T14:40:28;7.38;;;6.00;;
47251;SDS011;32991;51.374;11.586;2023-02-28T14:43:00;7.85;;;5.80;;
47251;SDS011;32991;51.374;11.586;2023-02-28T14:45:32;7.57;;;5.88;;
47251;SDS011;32991;51.374;11.586;2023-02-28T14:48:00;9.65;;;6.22;;
47251;SDS011;32991;51.374;11.586;2023-02-28T14:50:32;8.82;;;5.65;;
47251;SDS011;32991;51.374;11.586;2023-02-28T14:53:01;7.55;;;6.28;;
47251;SDS011;32991;51.374;11.586;2023-02-28T14:55:29;7.80;;;5.75;;
47251;SDS011;32991;51.374;11.586;2023-02-28T14:57:59;8.43;;;6.47;;
47251;SDS011;32991;51.374;11.586;2023-02-28T15:00:33;8.00;;;6.10;;
47251;SDS011;32991;51.374;11.586;2023-02-28T15:03:20;7.10;;;5.72;;
47251;SDS011;32991;51.374;11.586;2023-02-28T15:05:56;7.88;;;5.90;;
47251;SDS011;32991;51.374;11.586;2023-02-28T15:08:26;9.48;;;5.80;;
47251;SDS011;32991;51.374;11.586;2023-02-28T15:10:56;7.57;;;5.82;;
47251;SDS011;32991;51.374;11.586;2023-02-28T15:16:12;9.70;;;6.28;;
47251;SDS011;32991;51.374;11.586;2023-02-28T15:18:45;7.03;;;6.07;;
47251;SDS011;32991;51.374;11.586;2023-02-28T15:21:21;8.63;;;6.68;;
47251;SDS011;32991;51.374;11.586;2023-02-28T15:24:35;9.82;;;6.90;;
47251;SDS011;32991;51.374;11.586;2023-02-28T15:26:43;9.95;;;7.10;;
47251;SDS011;32991;51.374;11.586;2023-02-28T15:29:17;11.38;;;8.15;;
47251;SDS011;32991;51.374;11.586;2023-02-28T15:31:48;11.13;;;7.65;;
47251;SDS011;32991;51.374;11.586;2023-02-28T15:34:39;11.10;;;8.55;;
47251;SDS011;32991;51.374;11.586;2023-02-28T15:42:57;8.35;;;7.25;;
47251;SDS011;32991;51.374;11.586;2023-02-28T15:45:40;13.68;;;8.50;;
47251;SDS011;32991;51.374;11.586;2023-02-28T15:48:13;15.40;;;10.05;;
47251;SDS011;32991;51.374;11.586;2023-02-28T15:50:43;10.68;;;7.38;;
47251;SDS011;32991;51.374;11.586;2023-02-28T15:53:13;9.20;;;6.60;;
47251;SDS011;32991;51.374;11.586;2023-02-28T15:55:44;10.05;;;8.02;;
47251;SDS011;32991;51.374;11.586;2023-02-28T15:58:14;10.63;;;7.32;;
47251;SDS011;32991;51.374;11.586;2023-02-28T16:00:59;10.05;;;7.57;;
47251;SDS011;32991;51.374;11.586;2023-02-28T16:03:27;10.85;;;8.15;;
47251;SDS011;32991;51.374;11.586;2023-02-28T16:06:08;10.48;;;8.88;;
47251;SDS011;32991;51.374;11.586;2023-02-28T16:08:46;11.88;;;9.23;;
47251;SDS011;32991;51.374;11.586;2023-02-28T16:11:16;15.57;;;7.80;;
47251;SDS011;32991;51.374;11.586;2023-02-28T16:13:43;8.13;;;6.97;;
47251;SDS011;32991;51.374;11.586;2023-02-28T16:16:14;9.55;;;6.82;;
47251;SDS011;32991;51.374;11.586;2023-02-28T16:18:45;9.07;;;6.82;;
47251;SDS011;32991;51.374;11.586;2023-02-28T16:21:12;18.15;;;15.13;;
47251;SDS011;32991;51.374;11.586;2023-02-28T16:23:38;9.77;;;7.25;;
47251;SDS011;32991;51.374;11.586;2023-02-28T16:26:05;9.57;;;7.05;;
47251;SDS011;32991;51.374;11.586;2023-02-28T16:28:33;11.95;;;8.10;;
47251;SDS011;32991;51.374;11.586;2023-02-28T16:31:02;17.33;;;10.25;;
47251;SDS011;32991;51.374;11.586;2023-02-28T16:33:33;14.60;;;8.93;;
47251;SDS011;32991;51.374;11.586;2023-02-28T16:36:01;16.05;;;11.88;;
47251;SDS011;32991;51.374;11.586;2023-02-28T16:38:27;16.45;;;10.10;;
47251;SDS011;32991;51.374;11.586;2023-02-28T16:40:55;13.52;;;10.18;;
47251;SDS011;32991;51.374;11.586;2023-02-28T16:43:23;12.57;;;9.05;;
47251;SDS011;32991;51.374;11.586;2023-02-28T16:45:54;13.48;;;10.27;;
47251;SDS011;32991;51.374;11.586;2023-02-28T16:48:25;11.32;;;9.00;;
47251;SDS011;32991;51.374;11.586;2023-02-28T16:50:51;15.40;;;9.77;;
47251;SDS011;32991;51.374;11.586;2023-02-28T16:53:18;16.75;;;9.68;;
47251;SDS011;32991;51.374;11.586;2023-02-28T16:55:44;14.73;;;9.88;;
47251;SDS011;32991;51.374;11.586;2023-02-28T16:58:13;15.02;;;9.90;;